Philip, SD

7:56 PM MST on February 12, 2016 (GMT -0700)
Philip | | Change Station
CLOSE
Current Station
Airport
Location: Philip,
Elevation: 2208 ft
Nearby Weather Stations

Elev 2208 ft 44.05 °N, 101.60 °W | Updated 1 hour ago

Overcast
Overcast
22 °F
Feels Like 11 °F
N
10
Wind Variable Wind from East

Today
High -- | Low -- °F
--% Chance of Precip.
Yesterday
High -- | Low -- °F
Precip. -- in
Pressure 30.53 in
Visibility 6.0 miles
Clouds Overcast 4300 ft
Windchill 11 °F
Dew Point 18 °F
Humidity 85%
Rainfall 0.00 in
Snow Depth Not available.
6:50 AM 5:11 PM
Waxing Crescent, 26% visible
METAR KPHP 130155Z AUTO 10009KT 6SM -SN BR OVC043 M06/M08 A3044 RMK AO2 UPB15E28SNE10B45 SLP338 P0000 T10561078
Pressure 30.53 in
Visibility 6.0 miles
Clouds Overcast 4300 ft
Windchill 11 °F
Dew Point 18 °F
Humidity 85%
Rainfall 0.00 in
Snow Depth Not available.
6:50 AM 5:11 PM
Waxing Crescent, 26% visible
METAR KPHP 130155Z AUTO 10009KT 6SM -SN BR OVC043 M06/M08 A3044 RMK AO2 UPB15E28SNE10B45 SLP338 P0000 T10561078

10-Day Weather Forecast

Almanac

Astronomy

Feb. 12, 2016 Rise Set
Actual Time
Civil Twilight
Nautical Twilight
Astronomical Twilight
Moon
Length of Visible Light
Length of Day
Tomorrow will be .
, % of the Moon is Illuminated

Today's Extremes

State Highs State Lows

Community

WunderPhotos

Upload Photos

1,892,464 photos uploaded!

WunderBlog® & News

Nearby

Air Quality

  Air Quality AQ Index Pollutant
Not available.

Snow Depth

Station Depth Elevation

Earthquake Activity

City Distance Mag. Time & Date
Minimum magnitude displayed is 2.5.

Coastal Water Temperatures

Place Temperature

Stations

Nearby Weather Stations

Station Location Temp. Windchill Dew Point Humidity Wind Precip. Elev Updated Type
                   

Watches & Warnings

There are currently no watches in effect.